Time;durP1;ratioP1;P1;durP2;ratioP2;P2;SDS_P1;SDS_P2;PMS_P1;PMS_P2;Temp;Humidity;BMP_temperature;BMP_pressure;BME280_temperature;BME280_humidity;BME280_pressure;Samples;Min_cycle;Max_cycle;Signal;HPM_P1;HPM_P2
2022/09/29 00:02:17;;;;;;;5.47;4.20;;;;;;;10.06;92.38;98814.78;1767113;80;21793;-80
2022/09/29 00:04:44;;;;;;;4.92;3.98;;;;;;;10.03;92.37;98812.81;1788890;78;21103;-80
2022/09/29 00:07:11;;;;;;;4.28;3.87;;;;;;;9.99;92.36;98810.73;1767818;80;22123;-79
2022/09/29 00:09:39;;;;;;;4.05;3.67;;;;;;;10.02;92.12;98813.00;1771356;80;21600;-79
2022/09/29 00:12:06;;;;;;;4.40;4.00;;;;;;;10.10;91.82;98813.39;1774939;80;21060;-78
2022/09/29 00:14:32;;;;;;;6.37;4.37;;;;;;;10.09;91.63;98819.72;1790282;78;21104;-77
2022/09/29 00:16:59;;;;;;;4.95;3.58;;;;;;;10.01;91.74;98820.14;1739955;80;21025;-77
2022/09/29 00:19:27;;;;;;;4.45;4.03;;;;;;;10.01;91.76;98820.66;1779877;78;21085;-76
2022/09/29 00:21:54;;;;;;;3.70;3.33;;;;;;;10.02;91.64;98816.50;1781044;78;21493;-78
2022/09/29 00:24:20;;;;;;;4.80;4.25;;;;;;;10.02;91.68;98823.13;1773163;80;21537;-79
2022/09/29 00:26:46;;;;;;;4.05;3.65;;;;;;;9.95;91.90;98823.55;1786884;80;21237;-78
2022/09/29 00:29:13;;;;;;;3.45;3.00;;;;;;;9.94;91.95;98823.22;1776822;79;21021;-77
2022/09/29 00:31:39;;;;;;;5.65;3.58;;;;;;;10.00;91.80;98825.63;1765362;78;21159;-78
2022/09/29 00:34:06;;;;;;;4.15;3.37;;;;;;;9.98;91.77;98828.47;1803837;78;21002;-80
2022/09/29 00:36:34;;;;;;;4.53;3.30;;;;;;;9.89;91.95;98829.61;1769040;79;21013;-79
2022/09/29 00:39:00;;;;;;;4.10;3.42;;;;;;;9.83;92.23;98834.30;1780282;80;22010;-76
2022/09/29 00:41:31;;;;;;;3.75;3.25;;;;;;;9.88;92.13;98837.23;1767658;79;21045;-79
2022/09/29 00:44:15;;;;;;;8.85;3.67;;;;;;;9.93;91.96;98838.83;1747736;79;21014;-78
2022/09/29 00:46:47;;;;;;;3.30;2.95;;;;;;;9.88;92.11;98839.89;1695381;79;21009;-77
2022/09/29 00:49:25;;;;;;;3.95;3.33;;;;;;;9.85;92.15;98841.60;1771483;79;21026;-80
2022/09/29 00:51:56;;;;;;;4.67;3.40;;;;;;;9.94;91.90;98843.12;1780352;80;21173;-76
2022/09/29 00:56:12;;;;;;;4.05;3.65;;;;;;;9.95;91.88;98842.13;1866592;76;28393;-80
2022/09/29 00:58:55;;;;;;;3.70;3.30;;;;;;;9.94;91.82;98843.63;1831565;77;21603;-77
2022/09/29 01:01:22;;;;;;;4.78;4.03;;;;;;;10.01;91.61;98850.66;1852557;77;21108;-77
2022/09/29 01:03:49;;;;;;;4.22;3.77;;;;;;;9.98;91.57;98854.19;1813438;78;20920;-77
2022/09/29 01:06:27;;;;;;;4.65;4.05;;;;;;;9.94;91.58;98852.91;1752190;79;21036;-77
2022/09/29 01:09:07;;;;;;;3.67;3.37;;;;;;;10.00;91.37;98853.49;1778669;80;21020;-76
2022/09/29 01:11:34;;;;;;;5.10;3.75;;;;;;;10.03;91.22;98857.92;1765706;79;21545;-77
2022/09/29 01:14:04;;;;;;;7.17;4.15;;;;;;;9.99;91.43;98863.29;1759784;80;21136;-76
2022/09/29 01:16:36;;;;;;;4.30;3.90;;;;;;;9.96;91.60;98868.95;1761734;79;21608;-75
2022/09/29 01:19:07;;;;;;;4.12;3.72;;;;;;;9.99;91.37;98861.97;1782396;80;21001;-76
2022/09/29 01:22:26;;;;;;;4.20;3.80;;;;;;;10.10;91.01;98865.14;1760250;80;21340;-76
2022/09/29 01:25:10;;;;;;;4.40;4.00;;;;;;;10.09;90.97;98866.98;1766258;80;21020;-76
2022/09/29 01:28:20;;;;;;;3.25;2.92;;;;;;;10.04;91.06;98870.69;1774333;80;21133;-77
2022/09/29 01:31:13;;;;;;;3.90;3.50;;;;;;;10.08;90.82;98867.16;1760333;79;21089;-75
2022/09/29 01:33:56;;;;;;;;;;;;;;;10.13;90.52;98866.92;1791948;80;20953;-76
2022/09/29 01:36:38;;;;;;;4.33;3.65;;;;;;;10.10;90.68;98869.12;1767140;79;20202;-76
2022/09/29 01:39:37;;;;;;;5.53;3.77;;;;;;;10.07;90.73;98876.14;1759583;80;21820;-79
2022/09/29 01:42:19;;;;;;;4.25;3.83;;;;;;;10.12;90.52;98881.22;1760864;80;21222;-78
2022/09/29 01:44:51;;;;;;;5.40;4.10;;;;;;;10.21;90.29;98876.09;1757625;79;21053;-79
2022/09/29 01:47:24;;;;;;;6.95;4.87;;;;;;;10.18;90.28;98883.12;1787532;80;21512;-78
2022/09/29 01:49:59;;;;;;;4.17;3.22;;;;;;;10.15;90.35;98887.97;1771009;79;21092;-76
2022/09/29 01:52:29;;;;;;;5.90;4.50;;;;;;;10.19;90.15;98889.24;1801155;79;21037;-77
2022/09/29 01:55:07;;;;;;;5.47;4.58;;;;;;;10.27;89.73;98890.96;1763096;79;21862;-77
2022/09/29 01:58:04;;;;;;;5.72;5.03;;;;;;;10.21;89.81;98905.80;1762207;80;21000;-76
2022/09/29 02:00:37;;;;;;;4.70;4.22;;;;;;;10.15;89.99;98905.22;1762885;80;21008;-77
2022/09/29 02:03:17;;;;;;;6.67;4.42;;;;;;;10.16;90.02;98909.02;1766246;79;21089;-76
2022/09/29 02:05:51;;;;;;;5.62;4.47;;;;;;;10.24;89.93;98904.11;1761631;80;21524;-78
2022/09/29 02:08:35;;;;;;;6.20;5.12;;;;;;;10.23;90.00;98913.07;1761083;80;21038;-76
2022/09/29 02:11:07;;;;;;;4.80;4.30;;;;;;;10.19;90.08;98910.48;1759288;80;20989;-77
2022/09/29 02:13:48;;;;;;;5.47;4.05;;;;;;;10.25;89.90;98901.76;1790564;79;25688;-76
2022/09/29 02:16:18;;;;;;;6.10;4.78;;;;;;;10.34;89.59;98913.14;1754064;80;21096;-78
2022/09/29 02:18:56;;;;;;;6.30;5.70;;;;;;;10.30;89.58;98921.98;1773800;79;21633;-76
2022/09/29 02:21:23;;;;;;;6.12;5.28;;;;;;;10.28;89.57;98916.00;1738045;80;21554;-75
2022/09/29 02:23:50;;;;;;;6.37;5.60;;;;;;;10.33;89.42;98910.97;1782277;80;21013;-76
2022/09/29 02:26:18;;;;;;;6.15;5.65;;;;;;;10.39;89.19;98914.23;1774951;80;21020;-76
2022/09/29 02:28:46;;;;;;;6.30;5.67;;;;;;;10.35;89.16;98910.30;1792945;80;21480;-75
2022/09/29 02:31:13;;;;;;;5.33;4.83;;;;;;;10.32;89.18;98913.83;1778735;79;21984;-75
2022/09/29 02:33:39;;;;;;;5.35;4.60;;;;;;;10.34;89.14;98916.61;1761464;81;21072;-77
2022/09/29 02:36:28;;;;;;;5.37;4.80;;;;;;;10.42;88.90;98917.00;1771109;80;21036;-76
2022/09/29 02:39:19;;;;;;;6.47;5.83;;;;;;;10.41;88.88;98915.34;1760347;80;21057;-78
2022/09/29 02:42:03;;;;;;;5.92;5.42;;;;;;;10.37;88.88;98912.75;1789723;79;21242;-78
2022/09/29 02:44:47;;;;;;;6.95;4.78;;;;;;;10.36;88.79;98913.27;1719133;79;21081;-77
2022/09/29 02:47:43;;;;;;;6.50;5.25;;;;;;;10.48;88.41;98919.42;1771127;80;21141;-77
2022/09/29 02:50:27;;;;;;;4.85;4.35;;;;;;;10.45;88.34;98913.98;1743539;80;21610;-77
2022/09/29 02:53:11;;;;;;;5.15;4.65;;;;;;;10.41;88.44;98918.84;1762810;80;21029;-77
2022/09/29 02:56:03;;;;;;;4.60;3.77;;;;;;;10.39;88.35;98918.20;1764348;78;20972;-77
2022/09/29 02:58:50;;;;;;;5.40;4.65;;;;;;;10.50;88.00;98919.53;1754679;79;21084;-77
2022/09/29 03:01:16;;;;;;;5.33;4.83;;;;;;;10.53;87.79;98915.70;1773465;80;21124;-77
2022/09/29 03:03:43;;;;;;;5.95;5.37;;;;;;;10.50;87.82;98919.53;1776883;80;21555;-78
2022/09/29 03:06:11;;;;;;;5.83;4.92;;;;;;;10.47;87.92;98915.09;1798423;79;21112;-76
2022/09/29 03:08:39;;;;;;;6.28;4.47;;;;;;;10.52;87.81;98919.35;1793565;79;21105;-77
2022/09/29 03:11:06;;;;;;;6.55;5.75;;;;;;;10.64;87.41;98920.49;1767293;79;21092;-78
2022/09/29 03:13:34;;;;;;;6.15;5.00;;;;;;;10.62;87.33;98915.39;1780705;79;20995;-79
2022/09/29 03:16:01;;;;;;;5.22;4.72;;;;;;;10.61;87.14;98921.70;1783156;79;20994;-77
2022/09/29 03:18:28;;;;;;;5.45;4.33;;;;;;;10.59;87.15;98921.59;1767893;80;21001;-78
2022/09/29 03:20:56;;;;;;;5.15;4.65;;;;;;;10.64;86.99;98921.82;1756567;79;21023;-76
2022/09/29 03:23:24;;;;;;;4.75;4.35;;;;;;;10.72;86.75;98918.22;1773302;79;21516;-78
2022/09/29 03:25:50;;;;;;;6.35;5.37;;;;;;;10.68;86.81;98912.98;1755888;79;21140;-76
2022/09/29 03:28:17;;;;;;;5.95;5.33;;;;;;;10.65;86.99;98914.70;1771287;79;21030;-78
2022/09/29 03:30:45;;;;;;;5.47;4.97;;;;;;;10.62;87.04;98919.86;1748395;80;21026;-79
2022/09/29 03:33:12;;;;;;;8.33;4.87;;;;;;;10.67;86.81;98925.95;1789368;80;21051;-80
2022/09/29 03:35:38;;;;;;;5.60;4.95;;;;;;;10.71;86.53;98926.70;1785555;80;21064;-76
2022/09/29 03:38:04;;;;;;;5.28;4.53;;;;;;;10.64;86.63;98928.46;1771049;79;21262;-78
2022/09/29 03:40:31;;;;;;;5.05;3.70;;;;;;;10.57;86.79;98928.92;1782728;80;21100;-77
2022/09/29 03:42:58;;;;;;;4.58;4.12;;;;;;;10.54;86.82;98930.61;1789320;80;21076;-78
2022/09/29 03:45:25;;;;;;;4.08;3.77;;;;;;;10.62;86.58;98934.47;1767540;79;21093;-77
2022/09/29 03:47:55;;;;;;;4.92;3.75;;;;;;;10.65;86.45;98940.75;1756533;79;21591;-78
2022/09/29 03:50:24;;;;;;;4.33;3.58;;;;;;;10.58;86.55;98938.00;1774423;79;21188;-77
2022/09/29 03:52:50;;;;;;;5.10;3.20;;;;;;;10.52;86.78;98945.40;1778181;79;21010;-79
2022/09/29 03:55:16;;;;;;;3.33;2.80;;;;;;;10.55;86.61;98946.88;1781823;80;21157;-78
2022/09/29 03:57:43;;;;;;;3.65;2.80;;;;;;;10.65;86.23;98947.91;1767250;79;21081;-78
2022/09/29 04:00:11;;;;;;;4.72;3.45;;;;;;;10.64;86.20;98953.70;1744193;79;21071;-78
2022/09/29 04:02:40;;;;;;;5.05;3.52;;;;;;;10.60;86.14;98963.05;1773949;79;21142;-77
2022/09/29 04:05:07;;;;;;;7.08;3.00;;;;;;;10.58;86.14;98966.41;1770013;79;22072;-77
2022/09/29 04:07:33;;;;;;;4.33;2.62;;;;;;;10.67;85.92;98966.61;1779228;79;21077;-78
2022/09/29 04:10:01;;;;;;;8.28;2.80;;;;;;;10.76;85.55;98976.12;1757835;79;20983;-78
2022/09/29 04:12:30;;;;;;;3.87;3.05;;;;;;;10.73;85.37;98975.16;1754500;79;21033;-79
2022/09/29 04:14:56;;;;;;;5.33;2.95;;;;;;;10.72;85.55;98970.88;1778944;79;21161;-78
2022/09/29 04:17:26;;;;;;;3.77;3.10;;;;;;;10.72;85.65;98972.69;1786267;80;21453;-79
2022/09/29 04:19:53;;;;;;;3.98;2.95;;;;;;;10.79;85.54;98976.24;1774334;80;21060;-79
2022/09/29 04:22:21;;;;;;;4.50;3.50;;;;;;;10.90;85.21;98975.75;1743774;81;21079;-78
2022/09/29 04:24:48;;;;;;;3.67;3.35;;;;;;;10.91;85.08;98977.89;1735988;80;21017;-78
2022/09/29 04:27:15;;;;;;;3.55;3.25;;;;;;;10.89;84.96;98982.06;1746801;80;21128;-78
2022/09/29 04:29:42;;;;;;;3.10;2.80;;;;;;;10.87;84.95;98976.11;1762640;80;21052;-79
2022/09/29 04:32:12;;;;;;;2.95;2.60;;;;;;;10.95;84.81;98980.48;1779648;80;21084;-80
2022/09/29 04:34:38;;;;;;;4.30;3.22;;;;;;;11.06;84.32;98978.66;1782658;80;21093;-79
2022/09/29 04:37:10;;;;;;;6.58;3.62;;;;;;;11.07;84.16;98984.30;1771906;80;21036;-79
2022/09/29 04:39:38;;;;;;;5.35;3.52;;;;;;;11.05;84.13;98985.48;1756904;79;21209;-79
2022/09/29 04:42:04;;;;;;;4.03;3.55;;;;;;;11.03;84.00;98981.72;1788751;79;21461;-78
2022/09/29 04:44:31;;;;;;;4.00;3.60;;;;;;;11.09;84.01;98980.95;1770613;81;21033;-76
2022/09/29 04:46:57;;;;;;;3.83;3.45;;;;;;;11.19;83.63;98980.63;1784936;79;21038;-75
2022/09/29 04:49:24;;;;;;;4.60;3.87;;;;;;;11.17;83.63;98982.66;1772808;80;20993;-79
2022/09/29 04:51:51;;;;;;;4.42;4.03;;;;;;;11.15;83.58;98978.86;1764813;79;21656;-75
2022/09/29 04:54:17;;;;;;;3.95;3.52;;;;;;;11.14;83.70;98973.20;1758350;81;21076;-75
2022/09/29 04:56:44;;;;;;;4.70;4.20;;;;;;;11.20;83.62;98975.61;1761875;81;21075;-75
2022/09/29 04:59:11;;;;;;;5.97;5.03;;;;;;;11.30;83.01;98973.95;1763809;81;20989;-79
2022/09/29 05:01:39;;;;;;;4.92;4.42;;;;;;;11.28;83.17;98969.34;1766572;78;21598;-78
2022/09/29 05:04:08;;;;;;;5.90;4.70;;;;;;;11.21;83.23;98970.11;1803131;78;21020;-77
2022/09/29 05:06:38;;;;;;;7.03;4.30;;;;;;;11.21;83.30;98967.45;1759169;80;21103;-78
2022/09/29 05:09:05;;;;;;;4.47;3.45;;;;;;;11.26;83.00;98969.56;1795755;78;21018;-77
2022/09/29 05:11:32;;;;;;;5.12;4.62;;;;;;;11.35;82.72;98974.22;1780798;78;21088;-75
2022/09/29 05:14:00;;;;;;;6.05;3.90;;;;;;;11.35;82.83;98976.88;1764342;81;20989;-76
2022/09/29 05:16:27;;;;;;;6.67;5.30;;;;;;;11.34;83.01;98982.71;1793453;79;21139;-75
2022/09/29 05:18:54;;;;;;;5.03;3.90;;;;;;;11.36;83.02;98981.20;1730770;81;21472;-74
2022/09/29 05:21:21;;;;;;;6.30;5.22;;;;;;;11.43;82.93;98975.92;1774359;80;21118;-76
2022/09/29 05:23:47;;;;;;;6.37;4.67;;;;;;;11.55;82.80;98976.54;1771214;80;21039;-76
2022/09/29 05:26:14;;;;;;;7.47;6.00;;;;;;;11.56;82.87;98982.67;1766176;80;21085;-76
2022/09/29 05:28:45;;;;;;;7.10;6.05;;;;;;;11.56;83.15;98986.15;1785478;80;21222;-75
2022/09/29 05:31:12;;;;;;;6.35;5.25;;;;;;;11.56;83.18;98988.00;1795060;78;21017;-76
2022/09/29 05:33:39;;;;;;;6.65;5.35;;;;;;;11.62;83.37;98989.88;1795172;80;21343;-77
2022/09/29 05:36:07;;;;;;;6.37;5.78;;;;;;;11.71;83.32;98989.24;1791977;80;21032;-74
2022/09/29 05:38:37;;;;;;;6.12;5.53;;;;;;;11.72;83.32;98990.87;1774711;80;21032;-77
2022/09/29 05:41:05;;;;;;;6.53;5.30;;;;;;;11.68;83.24;98997.08;1767482;80;21174;-76
2022/09/29 05:43:32;;;;;;;6.75;5.72;;;;;;;11.66;83.08;99004.95;1760200;80;21010;-80
2022/09/29 05:46:06;;;;;;;8.88;5.65;;;;;;;11.70;83.14;99006.20;1795463;80;21056;-78
2022/09/29 05:48:33;;;;;;;11.65;6.25;;;;;;;11.76;82.74;98999.62;1816520;78;21025;-77
2022/09/29 05:51:08;;;;;;;11.50;6.45;;;;;;;11.71;82.87;99006.53;1788408;79;21076;-79
2022/09/29 05:53:36;;;;;;;10.50;6.42;;;;;;;11.65;82.98;99000.63;1765779;79;21221;-77
2022/09/29 05:56:06;;;;;;;8.38;6.60;;;;;;;11.57;83.19;99007.76;1756098;79;21076;-79
2022/09/29 05:58:33;;;;;;;11.35;6.67;;;;;;;11.61;83.60;99009.53;1779416;79;21022;-80
2022/09/29 06:01:07;;;;;;;8.98;5.83;;;;;;;11.67;83.64;98998.62;1761976;79;21060;-82
2022/09/29 06:03:34;;;;;;;8.70;6.25;;;;;;;11.66;83.71;99002.29;1744544;79;21049;-83
2022/09/29 06:06:10;;;;;;;8.10;6.87;;;;;;;11.61;83.79;99010.34;1742235;80;21896;-82
2022/09/29 06:08:36;;;;;;;9.10;5.87;;;;;;;11.62;83.86;99013.82;1782724;80;21053;-83
2022/09/29 06:11:12;;;;;;;8.93;5.83;;;;;;;11.75;83.49;99009.13;1769184;80;21537;-82
2022/09/29 06:13:42;;;;;;;9.68;6.50;;;;;;;11.73;83.25;99007.16;1796870;80;20982;-82
2022/09/29 06:16:09;;;;;;;9.20;6.85;;;;;;;11.70;83.25;99010.20;1796562;80;21056;-82
2022/09/29 06:18:36;;;;;;;9.38;6.53;;;;;;;11.65;83.25;99016.11;1768898;80;21957;-82
2022/09/29 06:21:07;;;;;;;9.83;6.20;;;;;;;11.72;83.43;99019.63;1786506;80;21083;-81
2022/09/29 06:23:34;;;;;;;13.08;6.97;;;;;;;11.79;82.99;99011.19;1778648;80;21037;-83
2022/09/29 06:26:05;;;;;;;11.55;6.72;;;;;;;11.77;83.17;99013.73;1786591;79;21091;-83
2022/09/29 06:28:33;;;;;;;8.00;6.67;;;;;;;11.72;83.43;99012.16;1764999;80;21024;-83
2022/09/29 06:31:03;;;;;;;12.63;6.55;;;;;;;11.72;83.51;99014.81;1783327;79;21474;-82
2022/09/29 06:33:30;;;;;;;8.30;6.33;;;;;;;11.77;83.55;99025.20;1767381;79;21067;-81
2022/09/29 06:38:41;;;;;;;14.40;7.67;;;;;;;11.87;83.54;99026.19;1764594;81;21083;-82
2022/09/29 06:41:09;;;;;;;8.98;6.40;;;;;;;11.90;83.66;99030.32;1765289;80;21095;-81
2022/09/29 06:43:35;;;;;;;7.92;5.50;;;;;;;11.93;83.35;99033.42;1764961;81;21149;-82
2022/09/29 06:46:02;;;;;;;8.73;6.20;;;;;;;12.08;83.20;99032.52;1783193;80;21087;-83
2022/09/29 06:48:30;;;;;;;9.05;6.62;;;;;;;12.21;83.04;99031.27;1749522;80;21020;-83
2022/09/29 06:50:56;;;;;;;6.60;5.95;;;;;;;12.25;82.87;99037.84;1786811;79;21083;-82
2022/09/29 06:53:24;;;;;;;11.85;6.50;;;;;;;12.33;82.08;99038.19;1778180;80;21040;-81
2022/09/29 06:55:55;;;;;;;9.33;5.20;;;;;;;12.39;82.21;99036.88;1779902;80;21560;-81
2022/09/29 06:58:23;;;;;;;7.95;5.33;;;;;;;12.56;82.01;99037.90;1787435;78;20985;-82
2022/09/29 07:00:49;;;;;;;9.20;5.87;;;;;;;12.79;80.65;99034.40;1782585;80;20985;-82
2022/09/29 07:03:16;;;;;;;10.15;6.47;;;;;;;12.90;80.71;99037.02;1765293;80;21012;-80
2022/09/29 07:05:44;;;;;;;13.80;6.55;;;;;;;12.99;80.09;99036.30;1762718;81;21036;-82
2022/09/29 07:08:10;;;;;;;14.40;6.45;;;;;;;13.09;79.93;99035.39;1771689;80;21693;-83
2022/09/29 07:10:38;;;;;;;7.08;5.55;;;;;;;13.17;79.59;99039.72;1777130;80;20994;-82
2022/09/29 07:13:08;;;;;;;7.53;5.17;;;;;;;13.31;78.89;99040.10;1752500;79;21175;-79
2022/09/29 07:15:36;;;;;;;9.35;6.50;;;;;;;13.53;78.59;99040.73;1786830;79;21055;-83
2022/09/29 07:18:03;;;;;;;9.75;6.08;;;;;;;13.67;78.12;99047.41;1794735;79;21034;-83
2022/09/29 07:20:32;;;;;;;7.03;5.72;;;;;;;13.76;77.71;99045.66;1774178;80;21788;-82
2022/09/29 07:23:00;;;;;;;9.03;6.53;;;;;;;13.86;76.47;99046.58;1772706;79;21007;-80
2022/09/29 07:25:27;;;;;;;6.53;5.37;;;;;;;13.91;75.51;99051.33;1775612;80;21040;-81
2022/09/29 07:27:55;;;;;;;6.85;5.20;;;;;;;13.94;75.71;99046.88;1782999;80;21575;-82
2022/09/29 07:30:22;;;;;;;8.75;5.62;;;;;;;13.98;73.17;99052.12;1779296;79;21089;-81
2022/09/29 07:32:49;;;;;;;7.75;4.60;;;;;;;14.00;73.61;99054.59;1775287;80;21132;-83
2022/09/29 07:35:16;;;;;;;4.70;4.20;;;;;;;14.02;73.71;99051.19;1788677;80;21128;-82
2022/09/29 07:37:55;;;;;;;7.20;4.58;;;;;;;14.19;73.39;99042.23;1780287;79;21116;-82
2022/09/29 07:40:23;;;;;;;4.28;3.25;;;;;;;14.36;72.66;99043.43;1776043;80;21072;-82
2022/09/29 07:42:50;;;;;;;5.17;3.22;;;;;;;14.41;71.78;99040.95;1767075;80;21121;-79
2022/09/29 07:45:18;;;;;;;4.50;3.45;;;;;;;14.51;71.31;99029.83;1749294;79;21099;-80
2022/09/29 07:47:45;;;;;;;5.75;4.05;;;;;;;14.57;70.62;99038.89;1779398;78;21032;-77
2022/09/29 07:50:11;;;;;;;6.37;4.12;;;;;;;14.61;70.44;99038.24;1768639;80;21051;-77
2022/09/29 07:52:39;;;;;;;5.95;4.35;;;;;;;14.62;70.92;99027.02;1762596;80;20985;-75
2022/09/29 07:55:08;;;;;;;7.03;4.55;;;;;;;14.65;70.92;99029.28;1776898;79;21065;-81
2022/09/29 07:57:36;;;;;;;20.40;4.75;;;;;;;14.69;70.30;99027.30;1747471;80;21477;-76
2022/09/29 08:00:03;;;;;;;6.80;4.28;;;;;;;14.68;70.42;99043.05;1770864;79;20998;-75
2022/09/29 08:02:32;;;;;;;7.15;4.05;;;;;;;14.70;70.57;99047.67;1766216;80;21068;-75
2022/09/29 08:04:58;;;;;;;8.08;5.17;;;;;;;14.72;69.78;99054.96;1780569;79;20990;-77
2022/09/29 08:07:25;;;;;;;7.28;4.90;;;;;;;14.75;70.17;99058.53;1785127;80;20997;-77
2022/09/29 08:09:53;;;;;;;6.10;4.15;;;;;;;14.84;70.25;99051.62;1763958;79;22103;-75
2022/09/29 08:12:19;;;;;;;6.15;3.83;;;;;;;14.92;70.30;99050.04;1784740;80;21498;-77
2022/09/29 08:14:48;;;;;;;3.60;3.30;;;;;;;15.02;69.66;99051.73;1795134;78;21342;-76
2022/09/29 08:17:14;;;;;;;6.00;3.55;;;;;;;15.12;68.95;99053.44;1782871;80;21068;-76
2022/09/29 08:19:41;;;;;;;3.47;3.02;;;;;;;15.22;68.35;99055.65;1798745;78;20961;-76
2022/09/29 08:22:07;;;;;;;3.90;3.40;;;;;;;15.29;68.04;99052.39;1788082;78;21144;-78
2022/09/29 08:24:35;;;;;;;4.85;3.60;;;;;;;15.37;67.52;99062.02;1808872;78;20970;-77
2022/09/29 08:27:05;;;;;;;5.60;3.98;;;;;;;15.42;66.31;99055.52;1752372;79;21058;-76
2022/09/29 08:29:34;;;;;;;5.75;4.17;;;;;;;15.47;67.14;99056.19;1767692;79;21121;-74
2022/09/29 08:32:00;;;;;;;4.85;3.90;;;;;;;15.62;67.79;99058.56;1762413;78;21065;-74
2022/09/29 08:34:27;;;;;;;4.95;3.83;;;;;;;15.77;67.77;99045.70;1766236;80;21231;-77
2022/09/29 08:36:55;;;;;;;8.48;4.47;;;;;;;15.95;67.34;99056.98;1764431;79;21026;-75
2022/09/29 08:39:21;;;;;;;7.12;4.85;;;;;;;16.13;66.17;99056.22;1811304;78;21009;-76
2022/09/29 08:42:05;;;;;;;5.92;5.30;;;;;;;16.28;66.18;99049.14;1785208;78;21031;-76
2022/09/29 08:44:40;;;;;;;8.23;4.47;;;;;;;16.43;66.11;99050.13;1751000;78;21029;-77
2022/09/29 08:47:22;;;;;;;6.28;4.92;;;;;;;16.64;65.82;99043.49;1766599;79;21532;-75
2022/09/29 08:50:12;;;;;;;11.73;5.12;;;;;;;16.83;66.18;99049.16;1769256;79;21109;-77
2022/09/29 08:52:42;;;;;;;5.33;4.83;;;;;;;16.99;66.37;99054.42;1759211;79;20985;-77
2022/09/29 08:55:21;;;;;;;10.63;4.90;;;;;;;17.24;65.72;99049.45;1789528;80;21052;-77
2022/09/29 08:57:56;;;;;;;6.20;4.47;;;;;;;17.49;64.00;99050.09;1742551;81;21084;-78
2022/09/29 09:00:37;;;;;;;6.37;4.17;;;;;;;17.75;64.18;99045.38;1771159;78;21873;-78
2022/09/29 09:03:25;;;;;;;5.58;3.52;;;;;;;18.14;64.16;99048.45;1772839;80;21997;-76
2022/09/29 09:06:06;;;;;;;5.28;3.40;;;;;;;18.55;61.15;99045.83;1770386;80;21057;-78
2022/09/29 09:09:03;;;;;;;6.60;4.00;;;;;;;18.88;60.03;99026.88;1769946;80;21552;-79
2022/09/29 09:12:02;;;;;;;5.47;3.20;;;;;;;19.23;57.84;99026.71;1771134;80;20988;-76
2022/09/29 09:14:49;;;;;;;9.60;4.03;;;;;;;19.70;57.42;99024.25;1781152;80;21958;-78
2022/09/29 09:17:36;;;;;;;6.78;3.65;;;;;;;20.29;56.57;99031.36;1765974;80;21016;-78
2022/09/29 09:20:30;;;;;;;6.42;3.27;;;;;;;20.64;55.24;99023.47;1764462;80;21036;-77
2022/09/29 09:23:16;;;;;;;8.00;3.10;;;;;;;20.79;54.42;99031.75;1777139;80;20997;-76
2022/09/29 09:25:56;;;;;;;3.85;2.90;;;;;;;20.77;53.48;99026.34;1772520;80;20989;-77
2022/09/29 09:28:46;;;;;;;6.22;2.92;;;;;;;20.64;52.65;99036.16;1763532;78;21237;-78
2022/09/29 09:31:38;;;;;;;6.85;3.55;;;;;;;20.34;53.00;99036.84;1767577;80;21046;-78
2022/09/29 09:34:38;;;;;;;8.75;3.27;;;;;;;20.10;53.22;99034.88;1801830;78;20974;-78
2022/09/29 09:37:09;;;;;;;7.42;3.80;;;;;;;19.92;54.00;99042.70;1774814;80;21511;-79
2022/09/29 09:40:01;;;;;;;9.30;3.72;;;;;;;19.82;53.71;99027.20;1768254;80;21020;-79
2022/09/29 09:42:33;;;;;;;10.60;3.83;;;;;;;19.65;53.34;99014.23;1790314;80;21188;-78
2022/09/29 09:45:20;;;;;;;16.87;3.98;;;;;;;19.41;54.21;99026.51;1775471;78;21021;-79
2022/09/29 09:48:27;;;;;;;7.40;4.00;;;;;;;19.30;54.53;99019.84;1767360;80;21051;-79
2022/09/29 09:50:53;;;;;;;5.92;2.90;;;;;;;19.21;54.86;99028.83;1774004;78;21557;-78
2022/09/29 09:53:36;;;;;;;11.95;4.22;;;;;;;19.01;54.91;99042.74;1777479;80;21552;-79
2022/09/29 09:56:59;;;;;;;9.43;4.25;;;;;;;18.76;55.69;99031.73;1792896;78;21282;-78
2022/09/29 09:59:53;;;;;;;15.08;4.37;;;;;;;18.59;56.19;99041.08;1678274;83;21575;-78
2022/09/29 10:02:21;;;;;;;6.78;3.20;;;;;;;18.40;57.15;99034.22;1700516;84;21087;-78
2022/09/29 10:04:50;;;;;;;8.45;4.15;;;;;;;18.40;57.25;99034.22;1671056;85;21106;-78
2022/09/29 10:07:23;;;;;;;7.60;3.55;;;;;;;18.40;57.74;99036.91;1692683;84;21144;-79
2022/09/29 10:09:49;;;;;;;7.77;3.93;;;;;;;18.50;57.68;99039.80;1677258;84;22217;-76
2022/09/29 10:12:18;;;;;;;7.05;3.45;;;;;;;18.70;57.69;99040.77;1695730;83;21546;-77
2022/09/29 10:15:05;;;;;;;5.37;3.20;;;;;;;19.03;56.59;99036.59;1692201;84;21134;-75
2022/09/29 10:17:39;;;;;;;6.22;2.77;;;;;;;19.39;56.17;99043.44;1629520;85;21039;-77
2022/09/29 10:20:07;;;;;;;4.33;2.70;;;;;;;20.06;54.76;99036.44;1695270;83;21123;-78
2022/09/29 10:22:34;;;;;;;4.30;2.92;;;;;;;20.91;54.83;99039.71;1690233;84;21142;-78
2022/09/29 10:25:17;;;;;;;7.85;3.05;;;;;;;21.96;52.72;99046.63;1689435;83;21096;-80
2022/09/29 10:27:53;;;;;;;8.13;2.70;;;;;;;23.07;49.84;99047.49;1686939;83;21508;-78
2022/09/29 10:30:33;;;;;;;3.02;2.70;;;;;;;23.92;47.80;99038.09;1691552;83;21075;-77
2022/09/29 10:33:03;;;;;;;2.22;1.95;;;;;;;24.53;45.65;99041.22;1691022;83;21045;-77
2022/09/29 10:35:36;;;;;;;2.40;2.20;;;;;;;25.04;44.62;99030.68;1664347;83;21246;-76
2022/09/29 10:38:10;;;;;;;2.35;2.22;;;;;;;25.63;44.04;99050.67;1683470;84;21559;-79
2022/09/29 10:40:38;;;;;;;2.17;2.08;;;;;;;26.27;41.89;99029.16;1689785;84;21036;-78
2022/09/29 10:43:23;;;;;;;2.98;2.00;;;;;;;26.74;40.92;99034.09;1635670;85;21045;-78
2022/09/29 10:45:52;;;;;;;3.20;2.20;;;;;;;27.14;38.75;99030.00;1652115;86;21087;-80
2022/09/29 10:48:18;;;;;;;2.50;1.98;;;;;;;27.52;38.99;99027.24;1680259;83;21191;-77
2022/09/29 10:51:02;;;;;;;2.52;1.92;;;;;;;28.02;38.36;99020.67;1685756;83;21155;-77
2022/09/29 10:53:39;;;;;;;1.87;1.77;;;;;;;28.35;36.39;99015.70;1688476;83;21088;-77
2022/09/29 10:56:16;;;;;;;2.40;2.20;;;;;;;28.46;35.86;99027.24;1698246;83;21008;-78
2022/09/29 10:58:47;;;;;;;2.05;1.70;;;;;;;28.60;36.02;99020.66;1711041;82;21079;-78
2022/09/29 11:01:16;;;;;;;2.72;1.98;;;;;;;28.86;35.58;99020.14;1742786;81;21222;-80
2022/09/29 11:03:52;;;;;;;2.20;2.05;;;;;;;28.99;35.54;99014.38;1743116;80;21045;-78
2022/09/29 11:06:27;;;;;;;2.40;2.20;;;;;;;29.25;35.40;99007.00;1733674;81;21082;-77
2022/09/29 11:09:15;;;;;;;2.40;2.00;;;;;;;29.69;35.09;99023.96;1744340;81;21151;-78
2022/09/29 11:11:54;;;;;;;5.30;2.25;;;;;;;30.12;33.94;99013.02;1735696;81;21587;-77
2022/09/29 11:14:39;;;;;;;2.70;2.40;;;;;;;30.27;33.89;99012.59;1730847;81;21142;-79
2022/09/29 11:17:26;;;;;;;3.25;2.37;;;;;;;30.05;33.90;99018.94;1736607;81;22079;-76
2022/09/29 11:19:55;;;;;;;4.55;2.65;;;;;;;29.52;34.29;99008.23;1744806;81;20984;-78
2022/09/29 11:22:48;;;;;;;2.85;2.15;;;;;;;29.31;34.26;99006.55;1749085;81;21518;-76
2022/09/29 11:25:31;;;;;;;5.55;2.37;;;;;;;29.32;34.71;99004.62;1742327;80;21574;-78
2022/09/29 11:28:18;;;;;;;4.45;2.60;;;;;;;29.68;34.53;99004.54;1744064;81;22731;-79
2022/09/29 11:31:00;;;;;;;3.08;2.77;;;;;;;30.19;34.58;98999.12;1751533;81;21061;-79
2022/09/29 11:33:55;;;;;;;6.90;3.08;;;;;;;30.87;33.89;98999.39;1703174;82;21048;-77
2022/09/29 11:37:01;;;;;;;4.87;2.80;;;;;;;31.45;32.99;99009.08;1745581;81;21028;-77
2022/09/29 11:39:46;;;;;;;5.40;2.85;;;;;;;31.43;33.18;99000.38;1755846;80;21047;-79
2022/09/29 11:42:47;;;;;;;4.33;2.58;;;;;;;31.60;33.27;99006.98;1752679;81;21051;-79
2022/09/29 11:45:17;;;;;;;5.10;2.52;;;;;;;31.87;33.02;99003.03;1746971;81;21079;-80
2022/09/29 11:48:20;;;;;;;3.45;2.65;;;;;;;32.10;32.84;98996.76;1722378;81;21098;-83
2022/09/29 11:51:21;;;;;;;3.90;2.40;;;;;;;32.52;32.82;99003.75;1708157;80;21025;-76
2022/09/29 11:54:02;;;;;;;2.27;2.10;;;;;;;32.93;32.30;98993.16;1748290;80;21086;-78
2022/09/29 11:56:40;;;;;;;4.00;2.40;;;;;;;32.87;32.75;99000.22;1712491;82;21075;-77
2022/09/29 11:59:34;;;;;;;3.22;2.40;;;;;;;32.38;32.50;99001.83;1742217;81;21559;-76
2022/09/29 12:02:35;;;;;;;2.50;2.30;;;;;;;31.32;33.01;99004.00;1731058;82;21022;-77
2022/09/29 12:05:36;;;;;;;6.12;3.42;;;;;;;29.79;34.58;99010.03;1711913;82;21055;-76
2022/09/29 12:08:29;;;;;;;6.22;2.70;;;;;;;28.37;36.01;99010.74;1754841;81;21579;-74
2022/09/29 12:11:15;;;;;;;4.58;2.47;;;;;;;27.15;37.66;99022.06;1745921;81;22249;-76